Map

Track Data

SID SEASON NUMBER BASIN SUBBASIN NAME ISO_TIME NATURE LAT LON WMO_WIND WMO_PRES WMO_AGENCY TRACK_TYPE DIST2LAND LANDFALL IFLAG USA_AGENCY USA_ATCF_ID USA_LAT USA_LON USA_RECORD USA_STATUS USA_WIND USA_PRES USA_SSHS USA_R34_NE USA_R34_SE USA_R34_SW USA_R34_NW USA_R50_NE USA_R50_SE USA_R50_SW USA_R50_NW USA_R64_NE USA_R64_SE USA_R64_SW USA_R64_NW USA_POCI USA_ROCI USA_RMW USA_EYE TOKYO_LAT TOKYO_LON TOKYO_GRADE TOKYO_WIND TOKYO_PRES TOKYO_R50_DIR TOKYO_R50_LONG TOKYO_R50_SHORT TOKYO_R30_DIR TOKYO_R30_LONG TOKYO_R30_SHORT TOKYO_LAND CMA_LAT CMA_LON CMA_CAT CMA_WIND CMA_PRES HKO_LAT HKO_LON HKO_CAT HKO_WIND HKO_PRES NEWDELHI_LAT NEWDELHI_LON NEWDELHI_GRADE NEWDELHI_WIND NEWDELHI_PRES NEWDELHI_CI NEWDELHI_DP NEWDELHI_POCI REUNION_LAT REUNION_LON REUNION_TYPE REUNION_WIND REUNION_PRES REUNION_TNUM REUNION_CI REUNION_RMW REUNION_R34_NE REUNION_R34_SE REUNION_R34_SW REUNION_R34_NW REUNION_R50_NE REUNION_R50_SE REUNION_R50_SW REUNION_R50_NW REUNION_R64_NE REUNION_R64_SE REUNION_R64_SW REUNION_R64_NW BOM_LAT BOM_LON BOM_TYPE BOM_WIND BOM_PRES BOM_TNUM BOM_CI BOM_RMW BOM_R34_NE BOM_R34_SE BOM_R34_SW BOM_R34_NW BOM_R50_NE BOM_R50_SE BOM_R50_SW BOM_R50_NW BOM_R64_NE BOM_R64_SE BOM_R64_SW BOM_R64_NW BOM_ROCI BOM_POCI BOM_EYE BOM_POS_METHOD BOM_PRES_METHOD NADI_LAT NADI_LON NADI_CAT NADI_WIND NADI_PRES WELLINGTON_LAT WELLINGTON_LON WELLINGTON_WIND WELLINGTON_PRES DS824_LAT DS824_LON DS824_STAGE DS824_WIND DS824_PRES TD9636_LAT TD9636_LON TD9636_STAGE TD9636_WIND TD9636_PRES TD9635_LAT TD9635_LON TD9635_WIND TD9635_PRES TD9635_ROCI NEUMANN_LAT NEUMANN_LON NEUMANN_CLASS NEUMANN_WIND NEUMANN_PRES MLC_LAT MLC_LON MLC_CLASS MLC_WIND MLC_PRES USA_GUST BOM_GUST BOM_GUST_PER REUNION_GUST REUNION_GUST_PER USA_SEAHGT USA_SEARAD_NE USA_SEARAD_SE USA_SEARAD_SW USA_SEARAD_NW STORM_SPEED STORM_DIR
1928265N17138 1928 55 WP MM NOT_NAMED 1928-09-21 10:00:00 NR 17.0000 138.300 main 1478 1478 __________O___ -1 17.0000 138.300 7 2 0
1928265N17138 1928 55 WP MM NOT_NAMED 1928-09-21 12:00:00 NR 17.0810 138.300 main 1482 1482 __________P___ -1 17.0810 138.300 7 3 5
1928265N17138 1928 55 WP MM NOT_NAMED 1928-09-21 15:00:00 NR 17.2159 138.300 main 1486 1486 __________P___ -1 17.2159 138.300 7 3 0
1928265N17138 1928 55 WP MM NOT_NAMED 1928-09-21 18:00:00 NR 17.3852 138.300 main 1494 1494 __________P___ -1 17.3852 138.300 7 4 1
1928265N17138 1928 55 WP MM NOT_NAMED 1928-09-21 21:00:00 NR 17.6095 138.300 main 1502 1502 __________P___ -1 17.6095 138.300 7 5 0
1928265N17138 1928 55 WP MM NOT_NAMED 1928-09-21 22:00:00 NR 17.7000 138.300 main 1506 1506 __________O___ -1 17.7000 138.300 7 6 5
1928265N17138 1928 55 WP MM NOT_NAMED 1928-09-22 00:00:00 NR 17.9070 138.300 main 1515 1515 __________P___ -1 17.9070 138.300 7 7 0
1928265N17138 1928 55 WP MM NOT_NAMED 1928-09-22 03:00:00 NR 18.2679 138.300 main 1533 1533 __________P___ -1 18.2679 138.300 7 8 2
1928265N17138 1928 55 WP MM NOT_NAMED 1928-09-22 06:00:00 NR 18.6645 138.300 main 1552 1532 __________P___ -1 18.6645 138.300 7 8 0
1928265N17138 1928 55 WP MM NOT_NAMED 1928-09-22 09:00:00 NR 19.0685 138.300 main 1532 1522 __________P___ -1 19.0685 138.300 7 8 0
1928265N17138 1928 55 WP MM NOT_NAMED 1928-09-22 10:00:00 NR 19.2000 138.300 main 1522 1503 __________O___ -1 19.2000 138.300 7 7 0
1928265N17138 1928 55 WP MM NOT_NAMED 1928-09-22 12:00:00 NR 19.4076 138.300 main 1503 1474 __________P___ -1 19.4076 138.300 7 6 0
1928265N17138 1928 55 WP MM NOT_NAMED 1928-09-22 15:00:00 NR 19.7120 138.300 main 1474 1444 __________P___ -1 19.7120 138.300 7 6 2
1928265N17138 1928 55 WP MM NOT_NAMED 1928-09-22 18:00:00 NR 20.0440 138.300 main 1444 1406 __________P___ -1 20.0440 138.300 7 7 2
1928265N17138 1928 55 WP MM NOT_NAMED 1928-09-22 21:00:00 NR 20.4444 138.300 main 1406 1387 __________P___ -1 20.4444 138.300 7 8 0
1928265N17138 1928 55 WP MM NOT_NAMED 1928-09-22 22:00:00 NR 20.6000 138.300 main 1387 1349 __________O___ -1 20.6000 138.300 7 11 0
1928265N17138 1928 55 WP MM NOT_NAMED 1928-09-23 00:00:00 NR 20.9727 138.297 main 1349 1290 __________P___ -1 20.9727 138.297 7 12 359
1928265N17138 1928 55 WP MM NOT_NAMED 1928-09-23 03:00:00 NR 21.6077 138.294 main 1290 1224 __________P___ -1 21.6077 138.294 7 13 359
1928265N17138 1928 55 WP MM NOT_NAMED 1928-09-23 06:00:00 NR 22.2920 138.292 main 1224 1158 __________P___ -1 22.2920 138.292 7 14 1
1928265N17138 1928 55 WP MM NOT_NAMED 1928-09-23 09:00:00 NR 22.9787 138.297 main 1158 1140 __________P___ -1 22.9787 138.297 7 14 1
1928265N17138 1928 55 WP MM NOT_NAMED 1928-09-23 10:00:00 NR 23.2000 138.300 main 1140 1104 __________O___ -1 23.2000 138.300 7 13 0
1928265N17138 1928 55 WP MM NOT_NAMED 1928-09-23 12:00:00 NR 23.6240 138.310 main 1104 1051 __________P___ -1 23.6240 138.310 7 12 2
1928265N17138 1928 55 WP MM NOT_NAMED 1928-09-23 15:00:00 NR 24.2197 138.331 main 1051 992 __________P___ -1 24.2197 138.331 7 12 2
1928265N17138 1928 55 WP MM NOT_NAMED 1928-09-23 18:00:00 NR 24.7806 138.358 main 992 938 __________P___ -1 24.7806 138.358 7 11 3
1928265N17138 1928 55 WP MM NOT_NAMED 1928-09-23 21:00:00 NR 25.3215 138.389 main 938 916 __________P___ -1 25.3215 138.389 7 11 4
1928265N17138 1928 55 WP MM NOT_NAMED 1928-09-23 22:00:00 NR 25.5000 138.400 main 916 __________O___ -1 25.5000 138.400 7 11 0

Digital Typhoon Data and Search

About IBTrACS Database

This database is a web-friendly format of International Best Track Archive for Climate Stewardship (IBTrACS), a global best track data archive curated by NOAA dating back to 1842.

Updated: 2021-10-21